createdAt,value
2019-05-14T00:02:52.055Z,89.60
2019-05-14T00:05:23.205Z,89.50
2019-05-14T00:07:54.082Z,89.50
2019-05-14T00:10:27.440Z,89.30
2019-05-14T00:12:58.274Z,89.10
2019-05-14T00:15:31.799Z,89.10
2019-05-14T00:18:01.912Z,89.00
2019-05-14T00:20:32.756Z,89.30
2019-05-14T00:23:03.638Z,89.20
2019-05-14T00:25:34.455Z,88.90
2019-05-14T00:28:05.439Z,88.90
2019-05-14T00:30:36.319Z,88.80
2019-05-14T00:33:07.002Z,89.20
2019-05-14T00:35:38.007Z,89.10
2019-05-14T00:38:08.927Z,89.00
2019-05-14T00:40:41.813Z,89.00
2019-05-14T00:43:11.883Z,89.00
2019-05-14T00:45:42.784Z,88.70
2019-05-14T00:48:17.518Z,88.60
2019-05-14T00:50:51.425Z,88.60
2019-05-14T00:53:21.749Z,88.40
2019-05-14T00:55:52.903Z,88.30
2019-05-14T00:58:23.849Z,87.90
2019-05-14T01:00:55.307Z,87.80
2019-05-14T01:03:26.172Z,87.80
2019-05-14T01:05:57.744Z,87.70
2019-05-14T01:08:28.795Z,87.60
2019-05-14T01:11:01.406Z,87.60
2019-05-14T01:13:31.845Z,87.60
2019-05-14T01:16:03.189Z,87.40
2019-05-14T01:18:33.958Z,87.50
2019-05-14T01:21:06.636Z,87.40
2019-05-14T01:23:37.378Z,87.50
2019-05-14T01:26:08.275Z,87.60
2019-05-14T01:28:41.363Z,87.60
2019-05-14T01:31:14.637Z,87.70
2019-05-14T01:33:43.837Z,87.60
2019-05-14T01:36:14.804Z,87.50
2019-05-14T01:38:46.177Z,87.30
2019-05-14T01:41:16.987Z,87.30
2019-05-14T01:43:48.152Z,87.20
2019-05-14T01:46:20.889Z,86.80
2019-05-14T01:48:54.675Z,86.70
2019-05-14T01:51:26.035Z,86.80
2019-05-14T01:53:56.914Z,86.60
2019-05-14T01:56:27.898Z,86.50
2019-05-14T01:59:01.483Z,86.50
2019-05-14T02:01:31.728Z,86.20
2019-05-14T02:04:03.876Z,86.00
2019-05-14T02:06:36.604Z,86.00
2019-05-14T02:09:10.943Z,86.00
2019-05-14T02:11:41.478Z,85.80
2019-05-14T02:14:12.668Z,85.80
2019-05-14T02:16:43.827Z,85.80
2019-05-14T02:19:14.527Z,85.70
2019-05-14T02:21:45.385Z,85.70
2019-05-14T02:24:16.370Z,85.50
2019-05-14T02:26:47.348Z,85.20
2019-05-14T02:29:18.299Z,84.70
2019-05-14T02:31:50.398Z,84.40
2019-05-14T02:34:22.309Z,84.10
2019-05-14T02:36:53.773Z,83.70
2019-05-14T02:39:24.837Z,83.40
2019-05-14T02:41:58.753Z,83.10
2019-05-14T02:44:29.775Z,82.40
2019-05-14T02:47:00.564Z,82.40
2019-05-14T02:49:31.357Z,82.40
2019-05-14T02:52:05.119Z,82.20
2019-05-14T02:54:35.767Z,82.10
2019-05-14T02:57:09.905Z,81.80
2019-05-14T02:59:39.330Z,81.60
2019-05-14T03:02:10.623Z,81.40
2019-05-14T03:04:41.438Z,81.30
2019-05-14T03:07:12.414Z,81.20
2019-05-14T03:09:43.439Z,80.50
2019-05-14T03:12:19.206Z,80.30
2019-05-14T03:14:49.829Z,80.60
2019-05-14T03:17:20.332Z,81.30
2019-05-14T03:19:51.689Z,80.90
2019-05-14T03:22:27.559Z,81.00
2019-05-14T03:24:59.602Z,80.80
2019-05-14T03:27:30.453Z,80.80
2019-05-14T03:30:01.069Z,80.70
2019-05-14T03:32:33.303Z,80.40
2019-05-14T03:35:04.813Z,80.30
2019-05-14T03:37:38.917Z,79.50
2019-05-14T03:40:09.764Z,80.20
2019-05-14T03:42:40.536Z,80.00
2019-05-14T03:45:12.522Z,79.30
2019-05-14T03:47:43.648Z,78.80
2019-05-14T03:50:15.005Z,78.70
2019-05-14T03:52:45.844Z,78.80
2019-05-14T03:55:19.929Z,77.20
2019-05-14T03:57:49.974Z,77.10
2019-05-14T04:00:23.350Z,77.50
2019-05-14T04:02:54.398Z,77.20
2019-05-14T04:05:29.239Z,77.50
2019-05-14T04:08:00.101Z,77.30
2019-05-14T04:10:31.357Z,76.20
2019-05-14T04:13:03.613Z,76.40
2019-05-14T04:15:39.031Z,76.20
2019-05-14T04:18:09.798Z,76.30
2019-05-14T04:20:42.239Z,75.50
2019-05-14T04:23:15.284Z,75.80
2019-05-14T04:25:49.878Z,75.80
2019-05-14T04:28:20.715Z,72.50
2019-05-14T04:30:54.070Z,73.70
2019-05-14T04:33:30.436Z,74.40
2019-05-14T04:36:00.311Z,74.90
2019-05-14T04:38:31.503Z,72.90
2019-05-14T04:41:02.216Z,73.50
2019-05-14T04:43:33.356Z,73.10
2019-05-14T04:46:04.451Z,74.60
2019-05-14T04:48:38.696Z,74.40
2019-05-14T04:51:09.773Z,74.40
2019-05-14T04:53:41.858Z,75.30
2019-05-14T04:56:12.803Z,74.50
2019-05-14T04:58:43.857Z,74.00
2019-05-14T05:01:15.042Z,72.60
2019-05-14T05:03:49.921Z,72.90
2019-05-14T05:06:19.374Z,72.20
2019-05-14T05:08:50.856Z,72.00
2019-05-14T05:11:22.073Z,71.20
2019-05-14T05:13:53.118Z,71.60
2019-05-14T05:16:24.507Z,70.90
2019-05-14T05:19:00.927Z,71.10
2019-05-14T05:21:38.730Z,70.60
2019-05-14T05:24:10.376Z,70.50
2019-05-14T05:26:41.141Z,71.20
2019-05-14T05:29:12.086Z,71.30
2019-05-14T05:31:44.251Z,70.50
2019-05-14T05:34:15.518Z,70.00
2019-05-14T05:36:48.519Z,71.60
2019-05-14T05:39:21.379Z,71.90
2019-05-14T05:41:55.089Z,71.40
2019-05-14T05:44:28.694Z,70.90
2019-05-14T05:47:00.164Z,71.30
2019-05-14T05:49:31.095Z,71.10
2019-05-14T05:52:02.153Z,71.60
2019-05-14T05:54:34.888Z,70.10
2019-05-14T05:57:09.033Z,69.80
2019-05-14T05:59:39.359Z,69.10
2019-05-14T06:02:10.539Z,70.10
2019-05-14T06:04:41.466Z,70.00
2019-05-14T06:07:12.472Z,68.90
2019-05-14T06:09:43.303Z,69.20
2019-05-14T06:12:14.515Z,69.10
2019-05-14T06:14:45.336Z,69.30
2019-05-14T06:17:18.897Z,68.80
2019-05-14T06:19:48.767Z,69.60
2019-05-14T06:22:19.609Z,67.80
2019-05-14T06:24:50.566Z,69.10
2019-05-14T06:27:22.106Z,69.70
2019-05-14T06:29:54.479Z,68.90
2019-05-14T06:32:25.370Z,69.50
2019-05-14T06:34:59.151Z,68.00
2019-05-14T06:37:30.139Z,68.40
2019-05-14T06:40:01.180Z,68.70
2019-05-14T06:42:32.167Z,68.50
2019-05-14T06:45:03.081Z,68.40
2019-05-14T06:47:34.062Z,68.60
2019-05-14T06:50:08.295Z,67.70
2019-05-14T06:52:38.844Z,67.60
2019-05-14T06:55:10.037Z,67.90
2019-05-14T06:57:40.888Z,67.60
2019-05-14T07:00:14.955Z,67.50
2019-05-14T07:02:45.438Z,65.80
2019-05-14T07:05:18.674Z,66.70
2019-05-14T07:08:00.040Z,67.30
2019-05-14T07:10:44.034Z,66.00
2019-05-14T07:13:15.457Z,67.00
2019-05-14T07:15:48.703Z,67.10
2019-05-14T07:18:19.025Z,66.40
2019-05-14T07:20:50.097Z,67.10
2019-05-14T07:23:21.037Z,67.10
2019-05-14T07:25:51.885Z,65.60
2019-05-14T07:28:23.816Z,66.20
2019-05-14T07:30:54.695Z,66.40
2019-05-14T07:33:25.686Z,66.40
2019-05-14T07:35:59.155Z,66.70
2019-05-14T07:38:29.194Z,66.50
2019-05-14T07:41:00.254Z,66.50
2019-05-14T07:43:31.086Z,66.40
2019-05-14T07:46:01.975Z,66.00
2019-05-14T07:48:32.936Z,64.70
2019-05-14T07:51:03.660Z,63.80
2019-05-14T07:53:38.910Z,65.30
2019-05-14T07:56:18.733Z,64.70
2019-05-14T07:58:49.453Z,65.10
2019-05-14T08:01:20.357Z,65.50
2019-05-14T08:03:52.102Z,65.60
2019-05-14T08:06:23.134Z,65.00
2019-05-14T08:08:54.197Z,63.60
2019-05-14T08:11:25.080Z,63.70
2019-05-14T08:13:58.423Z,65.10
2019-05-14T08:16:28.846Z,64.70
2019-05-14T08:19:00.314Z,62.90
2019-05-14T08:21:31.339Z,63.80
2019-05-14T08:24:02.710Z,64.70
2019-05-14T08:26:34.867Z,64.10
2019-05-14T08:29:05.703Z,64.50
2019-05-14T08:31:38.390Z,65.00
2019-05-14T08:34:09.356Z,65.20
2019-05-14T08:36:40.241Z,65.10
2019-05-14T08:39:11.001Z,65.10
2019-05-14T08:41:41.814Z,65.80
2019-05-14T08:44:12.606Z,66.20
2019-05-14T08:46:45.102Z,66.60
2019-05-14T08:49:18.233Z,66.40
2019-05-14T08:51:49.566Z,66.20
2019-05-14T08:54:20.035Z,66.40
2019-05-14T08:56:50.651Z,66.20
2019-05-14T08:59:21.639Z,66.20
2019-05-14T09:02:05.161Z,67.00
2019-05-14T09:04:24.878Z,66.10
2019-05-14T09:06:58.303Z,66.50
2019-05-14T09:09:29.252Z,66.20
2019-05-14T09:12:00.805Z,66.80
2019-05-14T09:14:31.723Z,66.80
2019-05-14T09:17:02.625Z,67.10
2019-05-14T09:19:33.557Z,67.00
2019-05-14T09:22:04.541Z,68.50
2019-05-14T09:24:38.432Z,69.80
2019-05-14T09:27:08.449Z,71.20
2019-05-14T09:29:39.666Z,72.20
2019-05-14T09:32:13.956Z,74.10
2019-05-14T09:34:45.082Z,75.50
2019-05-14T09:37:19.035Z,76.60
2019-05-14T09:39:49.257Z,76.90
2019-05-14T09:42:20.554Z,78.60
2019-05-14T09:44:51.927Z,78.70
2019-05-14T09:47:22.786Z,79.60
2019-05-14T09:50:15.249Z,80.60
2019-05-14T09:52:34.138Z,80.90
2019-05-14T09:55:05.246Z,81.60
2019-05-14T09:57:38.613Z,82.20
2019-05-14T10:00:14.412Z,82.00
2019-05-14T10:02:43.764Z,82.10
2019-05-14T10:05:34.061Z,82.20
2019-05-14T10:08:05.393Z,82.30
2019-05-14T10:10:39.659Z,81.90
2019-05-14T10:13:09.725Z,82.20
2019-05-14T10:15:40.927Z,81.80
2019-05-14T10:18:12.494Z,82.10
2019-05-14T10:20:46.047Z,81.90
2019-05-14T10:23:15.534Z,82.20
2019-05-14T10:25:46.377Z,82.10
2019-05-14T10:28:19.238Z,81.60
2019-05-14T10:30:49.463Z,81.70
2019-05-14T10:33:20.364Z,81.70
2019-05-14T10:35:51.316Z,82.00
2019-05-14T10:38:21.939Z,82.00
2019-05-14T10:40:52.923Z,82.20
2019-05-14T10:43:23.609Z,82.10
2019-05-14T10:45:54.421Z,81.60
2019-05-14T10:48:25.373Z,81.50
2019-05-14T10:51:02.666Z,81.30
2019-05-14T10:53:29.168Z,81.20
2019-05-14T10:56:00.116Z,80.90
2019-05-14T10:58:30.896Z,81.10
2019-05-14T11:01:01.726Z,80.70
2019-05-14T11:03:32.533Z,80.80
2019-05-14T11:06:03.390Z,80.90
2019-05-14T11:08:34.812Z,80.60
2019-05-14T11:11:05.613Z,80.50
2019-05-14T11:13:39.215Z,80.70
2019-05-14T11:16:08.859Z,80.60
2019-05-14T11:18:40.062Z,80.20
2019-05-14T11:21:25.622Z,80.10
2019-05-14T11:23:43.158Z,80.00
2019-05-14T11:26:13.904Z,80.10
2019-05-14T11:28:44.795Z,80.00
2019-05-14T11:31:15.659Z,80.00
2019-05-14T11:33:49.398Z,80.20
2019-05-14T11:36:19.064Z,80.20
2019-05-14T11:38:51.069Z,80.10
2019-05-14T11:41:22.268Z,80.10
2019-05-14T11:43:53.178Z,80.10
2019-05-14T11:46:39.048Z,80.00
2019-05-14T11:48:59.217Z,80.10
2019-05-14T11:51:54.642Z,79.90
2019-05-14T11:54:00.786Z,80.10
2019-05-14T11:56:31.615Z,80.00
2019-05-14T11:59:02.449Z,80.10
2019-05-14T12:01:33.307Z,80.10
2019-05-14T12:04:04.146Z,80.20
2019-05-14T12:06:35.017Z,80.00
2019-05-14T12:09:11.469Z,79.90
2019-05-14T12:11:39.261Z,79.80
2019-05-14T12:14:10.069Z,80.00
2019-05-14T12:16:41.011Z,80.10
2019-05-14T12:19:12.211Z,79.90
2019-05-14T12:21:58.684Z,80.00
2019-05-14T12:24:18.286Z,80.60
2019-05-14T12:26:49.050Z,80.60
2019-05-14T12:29:20.054Z,80.70
2019-05-14T12:31:50.883Z,80.40
2019-05-14T12:34:21.898Z,81.10
2019-05-14T12:36:52.652Z,81.30
2019-05-14T12:39:23.595Z,81.20
2019-05-14T12:41:54.332Z,81.20
2019-05-14T12:44:25.083Z,81.40
2019-05-14T12:46:58.523Z,81.70
2019-05-14T12:49:27.861Z,82.00
2019-05-14T12:51:59.240Z,82.30
2019-05-14T12:54:30.967Z,82.20
2019-05-14T12:57:01.886Z,82.40
2019-05-14T12:59:33.314Z,82.60
2019-05-14T13:02:04.229Z,82.50
2019-05-14T13:04:35.143Z,82.40
2019-05-14T13:07:08.917Z,82.50
2019-05-14T13:09:38.613Z,82.70
2019-05-14T13:12:11.366Z,82.50
2019-05-14T13:14:41.709Z,82.50
2019-05-14T13:17:12.504Z,82.70
2019-05-14T13:19:43.287Z,82.70
2019-05-14T13:22:18.177Z,82.90
2019-05-14T13:24:49.061Z,82.90
2019-05-14T13:27:19.076Z,83.00
2019-05-14T13:29:49.971Z,83.20
2019-05-14T13:32:20.841Z,82.90
2019-05-14T13:34:51.718Z,83.80
2019-05-14T13:37:22.676Z,82.90
2019-05-14T13:39:53.326Z,83.00
2019-05-14T13:42:24.102Z,82.70
2019-05-14T13:44:54.935Z,82.60
2019-05-14T13:47:25.911Z,82.60
2019-05-14T13:49:59.083Z,82.70
2019-05-14T13:52:29.403Z,82.70
2019-05-14T13:55:00.565Z,82.80
2019-05-14T13:57:31.457Z,82.80
2019-05-14T14:00:02.409Z,82.70
2019-05-14T14:02:33.304Z,82.90
2019-05-14T14:05:03.982Z,82.70
2019-05-14T14:07:34.798Z,82.80
2019-05-14T14:10:08.691Z,82.90
2019-05-14T14:12:40.326Z,82.90
2019-05-14T14:15:11.431Z,82.80
2019-05-14T14:17:42.066Z,82.70
2019-05-14T14:20:13.052Z,82.80
2019-05-14T14:22:44.103Z,83.00
2019-05-14T14:25:17.629Z,82.90
2019-05-14T14:27:48.691Z,83.10
2019-05-14T14:30:20.965Z,83.30
2019-05-14T14:32:51.931Z,83.40
2019-05-14T14:35:24.007Z,83.30
2019-05-14T14:37:54.902Z,83.50
2019-05-14T14:40:25.804Z,83.80
2019-05-14T14:42:59.179Z,84.00
2019-05-14T14:45:29.262Z,83.80
2019-05-14T14:48:01.314Z,83.70
2019-05-14T14:50:32.586Z,84.10
2019-05-14T14:53:08.981Z,84.10
2019-05-14T14:55:39.978Z,84.00
2019-05-14T14:58:11.518Z,84.00
2019-05-14T15:00:42.758Z,84.30
2019-05-14T15:03:13.579Z,84.50
2019-05-14T15:05:45.088Z,84.40
2019-05-14T15:08:15.973Z,84.70
2019-05-14T15:10:48.910Z,84.40
2019-05-14T15:13:23.958Z,84.40
2019-05-14T15:15:54.792Z,84.50
2019-05-14T15:18:25.768Z,85.30
2019-05-14T15:20:58.844Z,84.20
2019-05-14T15:23:28.851Z,84.40
2019-05-14T15:26:00.045Z,84.60
2019-05-14T15:28:30.864Z,84.40
2019-05-14T15:31:01.876Z,84.40
2019-05-14T15:33:32.795Z,84.40
2019-05-14T15:36:03.617Z,84.20
2019-05-14T15:38:34.475Z,84.20
2019-05-14T15:41:05.263Z,84.40
2019-05-14T15:43:39.244Z,84.30
2019-05-14T15:46:08.725Z,84.40
2019-05-14T15:48:40.057Z,84.20
2019-05-14T15:51:14.601Z,84.50
2019-05-14T15:54:04.952Z,84.70
2019-05-14T15:56:18.512Z,84.80
2019-05-14T15:58:48.038Z,85.10
2019-05-14T16:01:19.412Z,85.30
2019-05-14T16:03:50.568Z,85.10
2019-05-14T16:06:21.506Z,85.20
2019-05-14T16:08:52.350Z,85.20
2019-05-14T16:11:24.721Z,85.50
2019-05-14T16:13:55.481Z,85.50
2019-05-14T16:16:28.708Z,86.30
2019-05-14T16:18:58.459Z,85.20
2019-05-14T16:21:29.241Z,85.30
2019-05-14T16:24:00.281Z,85.30
2019-05-14T16:26:31.140Z,85.50
2019-05-14T16:29:02.014Z,85.40
2019-05-14T16:31:32.870Z,85.40
2019-05-14T16:34:03.674Z,85.40
2019-05-14T16:36:34.484Z,85.40
2019-05-14T16:39:09.446Z,85.50
2019-05-14T16:41:39.860Z,85.50
2019-05-14T16:44:10.933Z,85.60
2019-05-14T16:46:41.883Z,85.60
2019-05-14T16:49:12.753Z,85.60
2019-05-14T16:51:43.735Z,85.60
2019-05-14T16:54:14.749Z,85.60
2019-05-14T16:56:48.330Z,85.60
2019-05-14T16:59:18.786Z,85.80
2019-05-14T17:01:49.541Z,85.70
2019-05-14T17:04:20.503Z,85.80
2019-05-14T17:06:51.976Z,85.90
2019-05-14T17:09:22.664Z,85.70
2019-05-14T17:11:54.281Z,85.60
2019-05-14T17:14:25.170Z,85.40
2019-05-14T17:16:56.128Z,85.60
2019-05-14T17:19:29.595Z,85.50
2019-05-14T17:21:59.897Z,85.30
2019-05-14T17:24:30.776Z,85.30
2019-05-14T17:27:01.652Z,85.10
2019-05-14T17:29:33.280Z,85.00
2019-05-14T17:32:04.079Z,85.00
2019-05-14T17:34:34.895Z,85.00
2019-05-14T17:37:08.713Z,84.70
2019-05-14T17:39:38.691Z,84.90
2019-05-14T17:42:11.807Z,85.00
2019-05-14T17:44:42.118Z,85.10
2019-05-14T17:47:13.775Z,85.30
2019-05-14T17:49:45.450Z,85.40
2019-05-14T17:52:21.415Z,85.60
2019-05-14T17:54:48.555Z,85.60
2019-05-14T17:57:24.969Z,85.60
2019-05-14T17:59:54.437Z,85.70
2019-05-14T18:02:25.199Z,86.20
2019-05-14T18:04:58.862Z,86.50
2019-05-14T18:07:28.579Z,86.50
2019-05-14T18:09:59.522Z,86.40
2019-05-14T18:12:30.866Z,86.60
2019-05-14T18:15:01.773Z,87.00
2019-05-14T18:17:35.152Z,86.80
2019-05-14T18:20:08.987Z,87.30
2019-05-14T18:22:42.353Z,87.60
2019-05-14T18:25:12.409Z,87.70
2019-05-14T18:27:43.233Z,87.70
2019-05-14T18:30:14.821Z,87.60
2019-05-14T18:32:45.705Z,87.80
2019-05-14T18:35:18.781Z,87.70
2019-05-14T18:37:49.045Z,87.70
2019-05-14T18:40:20.117Z,87.60
2019-05-14T18:42:51.005Z,87.50
2019-05-14T18:45:22.157Z,87.50
2019-05-14T18:47:53.083Z,87.50
2019-05-14T18:50:24.048Z,87.50
2019-05-14T18:52:55.136Z,87.50
2019-05-14T18:55:26.001Z,87.70
2019-05-14T18:57:59.137Z,88.30
2019-05-14T19:00:29.558Z,88.60
2019-05-14T19:03:00.485Z,88.60
2019-05-14T19:05:31.320Z,88.60
2019-05-14T19:08:02.359Z,89.00
2019-05-14T19:10:33.195Z,89.00
2019-05-14T19:13:04.139Z,89.00
2019-05-14T19:15:35.061Z,89.50
2019-05-14T19:18:05.855Z,89.30
2019-05-14T19:20:39.024Z,89.20
2019-05-14T19:23:09.223Z,89.10
2019-05-14T19:25:40.105Z,89.30
2019-05-14T19:28:10.836Z,89.10
2019-05-14T19:30:41.840Z,89.30
2019-05-14T19:33:12.567Z,89.60
2019-05-14T19:35:43.437Z,89.40
2019-05-14T19:38:14.282Z,89.20
2019-05-14T19:40:45.361Z,89.10
2019-05-14T19:43:16.207Z,89.00
2019-05-14T19:45:48.536Z,88.80
2019-05-14T19:48:19.082Z,88.70
2019-05-14T19:50:49.972Z,88.60
2019-05-14T19:53:20.874Z,88.60
2019-05-14T19:55:51.670Z,88.50
2019-05-14T19:58:22.387Z,88.40
2019-05-14T20:00:53.447Z,88.20
2019-05-14T20:03:24.402Z,88.10
2019-05-14T20:05:56.285Z,88.00
2019-05-14T20:08:29.381Z,87.70
2019-05-14T20:10:59.434Z,87.80
2019-05-14T20:13:30.409Z,88.00
2019-05-14T20:16:01.351Z,88.30
2019-05-14T20:18:32.372Z,88.00
2019-05-14T20:21:03.075Z,87.80
2019-05-14T20:23:33.841Z,88.00
2019-05-14T20:26:04.816Z,88.90
2019-05-14T20:28:35.604Z,88.80
2019-05-14T20:31:09.255Z,88.00
2019-05-14T20:33:39.021Z,88.00
2019-05-14T20:36:10.000Z,88.00
2019-05-14T20:38:40.845Z,88.10
2019-05-14T20:41:11.705Z,88.20
2019-05-14T20:43:42.441Z,88.30
2019-05-14T20:46:13.253Z,88.20
2019-05-14T20:48:44.373Z,88.10
2019-05-14T20:51:15.297Z,88.00
2019-05-14T20:53:48.540Z,88.10
2019-05-14T20:56:18.960Z,87.80
2019-05-14T20:58:50.028Z,88.00
2019-05-14T21:01:21.104Z,87.90
2019-05-14T21:03:51.889Z,87.80
2019-05-14T21:06:22.953Z,87.80
2019-05-14T21:08:54.010Z,87.80
2019-05-14T21:11:24.748Z,88.00
2019-05-14T21:13:57.942Z,88.10
2019-05-14T21:16:28.391Z,88.10
2019-05-14T21:18:59.475Z,88.50
2019-05-14T21:21:30.155Z,88.60
2019-05-14T21:24:01.107Z,88.40
2019-05-14T21:26:31.888Z,88.40
2019-05-14T21:29:02.649Z,88.00
2019-05-14T21:31:33.561Z,88.00
2019-05-14T21:34:04.492Z,87.50
2019-05-14T21:36:35.337Z,87.70
2019-05-14T21:39:08.239Z,87.70
2019-05-14T21:41:38.981Z,87.90
2019-05-14T21:44:10.026Z,88.00
2019-05-14T21:46:41.278Z,88.80
2019-05-14T21:49:12.113Z,88.10
2019-05-14T21:51:42.944Z,88.20
2019-05-14T21:54:13.758Z,88.20
2019-05-14T21:56:44.557Z,88.40
2019-05-14T21:59:15.410Z,88.00
2019-05-14T22:01:48.471Z,88.10
2019-05-14T22:04:19.099Z,88.30
2019-05-14T22:06:49.991Z,88.40
2019-05-14T22:09:20.777Z,88.40
2019-05-14T22:11:51.404Z,88.40
2019-05-14T22:14:22.300Z,88.40
2019-05-14T22:16:53.311Z,88.60
2019-05-14T22:19:24.052Z,88.50
2019-05-14T22:21:54.997Z,88.20
2019-05-14T22:24:25.858Z,88.40
2019-05-14T22:26:58.188Z,88.40
2019-05-14T22:29:28.779Z,88.30
